Time;durP1;ratioP1;P1;durP2;ratioP2;P2;SDS_P1;SDS_P2;PMS_P1;PMS_P2;Temp;Humidity;BMP_temperature;BMP_pressure;BME280_temperature;BME280_humidity;BME280_pressure;Samples;Min_cycle;Max_cycle;Signal;HPM_P1;HPM_P2
2022/05/21 00:01:42;;;;;;;1.03;0.70;;;19.40;1.00;;;;;;5099602;28;20484;-57
2022/05/21 00:04:09;;;;;;;1.70;0.70;;;19.40;1.00;;;;;;5096678;28;20531;-57
2022/05/21 00:06:42;;;;;;;1.07;0.80;;;19.30;1.00;;;;;;5102535;28;20499;-57
2022/05/21 00:09:09;;;;;;;0.77;0.60;;;19.30;1.00;;;;;;5115751;28;20520;-57
2022/05/21 00:11:37;;;;;;;1.07;0.70;;;19.40;1.00;;;;;;5116262;28;20464;-57
2022/05/21 00:14:04;;;;;;;1.03;0.67;;;19.30;1.00;;;;;;5117612;28;20448;-57
2022/05/21 00:16:31;;;;;;;0.80;0.70;;;19.20;1.00;;;;;;5117165;28;20461;-57
2022/05/21 00:19:00;;;;;;;0.80;0.67;;;19.20;1.00;;;;;;5107793;28;20768;-57
2022/05/21 00:21:28;;;;;;;0.80;0.60;;;19.30;1.00;;;;;;5117430;28;20482;-54
2022/05/21 00:23:55;;;;;;;0.80;0.60;;;19.40;1.00;;;;;;5116083;28;20484;-57
2022/05/21 00:26:23;;;;;;;0.97;0.60;;;19.40;1.00;;;;;;5115742;28;20452;-57
2022/05/21 00:28:50;;;;;;;0.70;0.60;;;19.20;1.00;;;;;;5114873;28;20521;-57
2022/05/21 00:31:19;;;;;;;0.87;0.70;;;19.10;1.00;;;;;;5115715;28;20448;-56
2022/05/21 00:33:48;;;;;;;0.90;0.70;;;19.20;1.00;;;;;;5116177;28;20797;-57
2022/05/21 00:36:17;;;;;;;0.90;0.60;;;19.20;1.00;;;;;;5114627;27;20472;-55
2022/05/21 00:38:44;;;;;;;0.80;0.60;;;19.20;1.00;;;;;;5115918;28;20445;-57
2022/05/21 00:41:13;;;;;;;0.90;0.57;;;19.00;1.00;;;;;;5117016;28;20460;-56
2022/05/21 00:43:44;;;;;;;1.53;0.70;;;19.00;1.00;;;;;;5116487;28;20603;-56
2022/05/21 00:46:14;;;;;;;1.07;0.50;;;18.90;1.00;;;;;;5114582;28;20461;-56
2022/05/21 00:48:42;;;;;;;0.70;0.60;;;19.00;1.00;;;;;;5116285;28;20498;-56
2022/05/21 00:51:14;;;;;;;1.57;0.60;;;19.00;1.00;;;;;;5117461;28;20871;-56
2022/05/21 00:53:46;;;;;;;0.67;0.53;;;19.00;1.00;;;;;;5116917;28;20440;-57
2022/05/21 00:56:13;;;;;;;0.90;0.60;;;18.80;1.00;;;;;;5114134;28;20470;-56
2022/05/21 01:01:29;;;;;;;0.73;0.60;;;18.90;1.00;;;;;;5116595;28;20428;-57
2022/05/21 01:03:56;;;;;;;0.80;0.60;;;19.00;1.00;;;;;;5116558;28;20537;-57
2022/05/21 01:06:23;;;;;;;0.60;0.50;;;19.10;1.00;;;;;;5115300;28;20522;-55
2022/05/21 01:08:52;;;;;;;0.70;0.50;;;18.80;1.00;;;;;;5126376;27;20567;-56
2022/05/21 01:11:20;;;;;;;0.67;0.60;;;18.60;1.00;;;;;;5132012;27;20469;-54
2022/05/21 01:13:49;;;;;;;1.40;0.60;;;18.50;1.00;;;;;;5125679;27;20938;-56
2022/05/21 01:16:18;;;;;;;0.80;0.60;;;18.30;1.00;;;;;;5114355;27;20822;-56
2022/05/21 01:18:45;;;;;;;0.80;0.60;;;18.30;1.00;;;;;;5127364;27;20472;-57
2022/05/21 01:21:12;;;;;;;0.63;0.47;;;18.20;1.00;;;;;;5137155;27;20491;-51
2022/05/21 01:23:41;;;;;;;0.70;0.50;;;18.30;1.00;;;;;;5130174;27;20487;-55
2022/05/21 01:26:13;;;;;;;0.60;0.40;;;18.30;1.00;;;;;;5119667;27;20471;-55
2022/05/21 01:28:50;;;;;;;0.70;0.50;;;18.30;1.00;;;;;;5116229;28;20731;-52
2022/05/21 01:31:18;;;;;;;0.70;0.50;;;18.40;1.00;;;;;;5115073;28;20803;-52
2022/05/21 01:33:46;;;;;;;0.77;0.60;;;18.30;1.00;;;;;;5134675;27;20497;-54
2022/05/21 01:36:14;;;;;;;0.70;0.50;;;18.10;1.00;;;;;;5112195;28;20529;-56
2022/05/21 01:38:45;;;;;;;0.90;0.60;;;18.10;1.00;;;;;;5116082;28;20477;-55
2022/05/21 01:41:12;;;;;;;0.70;0.50;;;18.10;1.00;;;;;;5123192;27;20474;-56
2022/05/21 01:46:36;;;;;;;0.63;0.50;;;18.20;1.00;;;;;;5032708;28;20898;-56
2022/05/21 01:49:03;;;;;;;0.60;0.40;;;18.20;99.90;;;;;;5097085;28;20441;-55
2022/05/21 01:51:36;;;;;;;0.70;0.50;;;18.00;99.90;;;;;;5131615;28;20463;-55
2022/05/21 01:54:05;;;;;;;0.80;0.47;;;18.10;1.00;;;;;;5112816;28;20892;-55
2022/05/21 01:56:32;;;;;;;1.00;0.60;;;18.10;1.00;;;;;;5114382;28;20448;-54
2022/05/21 01:58:59;;;;;;;0.60;0.50;;;18.20;99.90;;;;;;5118537;28;20456;-55
2022/05/21 02:01:26;;;;;;;0.80;0.60;;;18.10;1.00;;;;;;5127466;28;20792;-55
2022/05/21 02:03:53;;;;;;;1.03;0.60;;;18.10;1.00;;;;;;5110439;28;20484;-52
2022/05/21 02:06:20;;;;;;;0.90;0.50;;;18.10;1.00;;;;;;5115105;28;20444;-56
2022/05/21 02:08:57;;;;;;;0.90;0.60;;;18.10;1.00;;;;;;5117291;28;20846;-56
2022/05/21 02:11:25;;;;;;;0.80;0.60;;;18.10;1.00;;;;;;5136240;28;20501;-55
2022/05/21 02:13:52;;;;;;;0.70;0.50;;;17.90;1.00;;;;;;5116144;28;20521;-54
2022/05/21 02:16:19;;;;;;;2.90;0.50;;;17.80;1.00;;;;;;5115621;28;20915;-52
2022/05/21 02:18:46;;;;;;;1.87;0.60;;;17.60;1.00;;;;;;5123902;28;20460;-54
2022/05/21 02:21:13;;;;;;;0.87;0.60;;;17.60;1.00;;;;;;5131927;28;20451;-54
2022/05/21 02:23:40;;;;;;;0.60;0.50;;;17.30;1.00;;;;;;5111679;28;20577;-50
2022/05/21 02:26:07;;;;;;;0.83;0.60;;;17.10;1.00;;;;;;5136497;28;20440;-51
2022/05/21 02:28:35;;;;;;;0.80;0.50;;;17.00;1.00;;;;;;5100561;28;20742;-55
2022/05/21 02:31:02;;;;;;;0.77;0.50;;;16.90;1.00;;;;;;5101722;28;20468;-56
2022/05/21 02:33:36;;;;;;;1.10;0.50;;;17.10;1.00;;;;;;5136408;28;20455;-54
2022/05/21 02:36:04;;;;;;;0.90;0.70;;;17.30;1.00;;;;;;5113292;28;20458;-52
2022/05/21 02:41:17;;;;;;;0.80;0.50;;;17.20;1.00;;;;;;5109809;28;20528;-54
2022/05/21 02:43:46;;;;;;;0.80;0.60;;;17.30;1.00;;;;;;5139034;27;20934;-55
2022/05/21 02:46:14;;;;;;;1.70;0.67;;;17.20;1.00;;;;;;5124881;27;20460;-53
2022/05/21 02:48:42;;;;;;;0.80;0.40;;;17.30;1.00;;;;;;5120134;28;20802;-55
2022/05/21 02:51:10;;;;;;;1.00;0.50;;;17.40;1.00;;;;;;5130752;27;20905;-53
2022/05/21 02:53:38;;;;;;;0.87;0.50;;;17.40;1.00;;;;;;5138830;27;20501;-54
2022/05/21 02:56:06;;;;;;;0.80;0.60;;;17.40;1.00;;;;;;5099232;28;20450;-54
2022/05/21 02:58:33;;;;;;;0.70;0.57;;;17.30;1.00;;;;;;5100777;28;20827;-55
2022/05/21 03:01:10;;;;;;;0.70;0.60;;;17.20;1.00;;;;;;5098392;28;20430;-55
2022/05/21 03:03:38;;;;;;;0.90;0.63;;;17.00;1.00;;;;;;5104908;28;20476;-56
2022/05/21 03:06:08;;;;;;;1.87;0.60;;;17.10;1.00;;;;;;5113113;28;20784;-53
2022/05/21 03:11:23;;;;;;;1.37;0.60;;;16.60;1.00;;;;;;5118822;28;20419;-54
2022/05/21 03:13:51;;;;;;;1.27;0.60;;;16.40;1.00;;;;;;5114598;28;20457;-53
2022/05/21 03:16:19;;;;;;;0.97;0.70;;;16.30;1.00;;;;;;5109433;28;20802;-55
2022/05/21 03:18:47;;;;;;;0.83;0.60;;;16.40;1.00;;;;;;5134254;27;20509;-54
2022/05/21 03:21:14;;;;;;;0.80;0.60;;;16.50;1.00;;;;;;5138096;27;20447;-56
2022/05/21 03:23:42;;;;;;;1.10;0.60;;;16.40;1.00;;;;;;5138399;27;20526;-60
2022/05/21 03:26:09;;;;;;;0.97;0.60;;;16.30;1.00;;;;;;5112402;27;20448;-52
2022/05/21 03:28:37;;;;;;;0.80;0.60;;;16.50;1.00;;;;;;5117132;28;20506;-55
2022/05/21 03:31:05;;;;;;;1.40;0.70;;;16.50;1.00;;;;;;5117340;28;20885;-53
2022/05/21 03:33:34;;;;;;;1.10;0.60;;;16.50;1.00;;;;;;5116259;28;20722;-54
2022/05/21 03:36:01;;;;;;;1.73;0.70;;;16.60;1.00;;;;;;5116675;27;20480;-53
2022/05/21 03:38:48;;;;;;;0.97;0.60;;;16.70;1.00;;;;;;5138534;27;20432;-52
2022/05/21 03:41:16;;;;;;;1.30;0.60;;;16.80;1.00;;;;;;5138849;27;20450;-53
2022/05/21 03:43:44;;;;;;;1.30;0.67;;;16.80;1.00;;;;;;5126478;27;20484;-54
2022/05/21 03:46:12;;;;;;;1.17;0.73;;;16.60;1.00;;;;;;5116169;27;20453;-56
2022/05/21 03:48:41;;;;;;;0.90;0.60;;;16.50;1.00;;;;;;5117230;28;20448;-55
2022/05/21 03:51:10;;;;;;;0.90;0.70;;;16.60;1.00;;;;;;5117380;28;20440;-57
2022/05/21 03:53:38;;;;;;;1.00;0.70;;;16.60;1.00;;;;;;5114950;27;20459;-53
2022/05/21 03:56:12;;;;;;;1.80;0.70;;;16.40;1.00;;;;;;5116454;28;20480;-54
2022/05/21 03:58:40;;;;;;;1.87;0.60;;;16.40;1.00;;;;;;5116819;28;20456;-55
2022/05/21 04:01:09;;;;;;;0.70;0.60;;;16.40;1.00;;;;;;5117877;28;20445;-54
2022/05/21 04:03:36;;;;;;;1.50;0.60;;;16.30;1.00;;;;;;5119508;27;20529;-53
2022/05/21 04:06:05;;;;;;;2.57;0.60;;;16.40;1.00;;;;;;5132134;27;20452;-53
2022/05/21 04:08:35;;;;;;;1.23;0.70;;;16.60;1.00;;;;;;5137513;27;20550;-53
2022/05/21 04:11:08;;;;;;;1.00;0.60;;;16.60;1.00;;;;;;5130832;27;20479;-54
2022/05/21 04:13:35;;;;;;;1.00;0.60;;;16.30;1.00;;;;;;5117476;27;20460;-54
2022/05/21 04:16:02;;;;;;;0.77;0.60;;;16.40;1.00;;;;;;5138424;27;20447;-54
2022/05/21 04:18:29;;;;;;;1.53;0.70;;;16.20;1.00;;;;;;5138660;27;20760;-55
2022/05/21 04:20:56;;;;;;;0.80;0.53;;;16.00;1.00;;;;;;5112968;27;20461;-51
2022/05/21 04:23:24;;;;;;;1.10;0.57;;;15.90;1.00;;;;;;5120740;27;21161;-56
2022/05/21 04:25:51;;;;;;;0.73;0.60;;;15.80;1.00;;;;;;5137294;27;20466;-53
2022/05/21 04:28:19;;;;;;;1.20;0.60;;;16.00;1.00;;;;;;5137118;27;20780;-54
2022/05/21 04:30:46;;;;;;;1.10;0.50;;;16.10;1.00;;;;;;5132606;27;20520;-53
2022/05/21 04:33:13;;;;;;;0.70;0.47;;;16.60;1.00;;;;;;5134825;27;20489;-51
2022/05/21 04:38:26;;;;;;;0.70;0.50;;;16.50;1.00;;;;;;5137385;27;20407;-54
2022/05/21 04:40:53;;;;;;;0.80;0.57;;;16.30;1.00;;;;;;5132737;27;20921;-54
2022/05/21 04:43:20;;;;;;;2.30;0.60;;;16.50;99.90;;;;;;5137736;27;20568;-54
2022/05/21 04:45:47;;;;;;;2.03;0.60;;;16.60;1.00;;;;;;5138033;27;20582;-56
2022/05/21 04:48:14;;;;;;;0.70;0.50;;;16.40;1.00;;;;;;5138061;27;20436;-54
2022/05/21 04:50:41;;;;;;;0.80;0.60;;;16.50;81.30;;;;;;5126781;27;20924;-49
2022/05/21 04:53:08;;;;;;;0.67;0.50;;;16.30;1.00;;;;;;5138156;27;20725;-49
2022/05/21 04:55:36;;;;;;;1.17;0.50;;;16.40;1.00;;;;;;5138074;27;20455;-58
2022/05/21 04:58:04;;;;;;;0.57;0.43;;;16.30;99.90;;;;;;5136600;27;20807;-55
2022/05/21 05:00:31;;;;;;;0.80;0.50;;;16.30;99.90;;;;;;5130754;27;20898;-54
2022/05/21 05:02:58;;;;;;;0.60;0.43;;;16.20;99.90;;;;;;5137293;27;20496;-55
2022/05/21 05:05:25;;;;;;;0.83;0.60;;;16.40;1.00;;;;;;5138091;27;20455;-55
2022/05/21 05:07:52;;;;;;;1.40;0.53;;;16.40;1.00;;;;;;5129849;27;20456;-51
2022/05/21 05:10:19;;;;;;;0.63;0.40;;;16.50;99.90;;;;;;5137439;27;20444;-54
2022/05/21 05:12:48;;;;;;;0.50;0.40;;;16.60;1.00;;;;;;5137806;27;20456;-51
2022/05/21 05:15:14;;;;;;;2.30;0.50;;;17.00;1.00;;;;;;5137464;27;20439;-54
2022/05/21 05:17:41;;;;;;;0.60;0.40;;;17.10;1.00;;;;;;5134957;27;20464;-53
2022/05/21 05:20:09;;;;;;;1.30;0.40;;;17.20;1.00;;;;;;5137535;27;20443;-58
2022/05/21 05:22:40;;;;;;;0.73;0.50;;;16.70;1.00;;;;;;5136747;27;20456;-58
2022/05/21 05:25:08;;;;;;;0.60;0.50;;;16.70;99.90;;;;;;5137055;27;20472;-56
2022/05/21 05:27:35;;;;;;;0.50;0.40;;;16.80;99.90;;;;;;5120562;27;20460;-55
2022/05/21 05:30:04;;;;;;;0.50;0.40;;;16.80;1.00;;;;;;5134051;27;20496;-58
2022/05/21 05:32:32;;;;;;;0.70;0.50;;;16.80;1.00;;;;;;5137454;27;20821;-54
2022/05/21 05:34:59;;;;;;;0.50;0.40;;;16.50;99.90;;;;;;5137480;27;20738;-55
2022/05/21 05:37:26;;;;;;;0.60;0.50;;;16.70;99.90;;;;;;5120747;27;20517;-58
2022/05/21 05:39:56;;;;;;;0.70;0.50;;;17.00;1.00;;;;;;5115401;28;20506;-58
2022/05/21 05:42:23;;;;;;;1.47;0.50;;;17.10;99.90;;;;;;5116152;28;20452;-55
2022/05/21 05:44:50;;;;;;;1.10;1.00;;;17.00;99.90;;;;;;5116630;28;20737;-56
2022/05/21 05:47:19;;;;;;;0.70;0.37;;;17.10;99.90;;;;;;5114856;28;20521;-58
2022/05/21 05:49:45;;;;;;;0.80;0.30;;;17.40;1.00;;;;;;5114718;28;20491;-58
2022/05/21 05:52:13;;;;;;;0.60;0.50;;;17.40;1.00;;;;;;5112492;28;20509;-58
2022/05/21 05:54:40;;;;;;;0.60;0.40;;;17.70;1.00;;;;;;5111753;28;20452;-58
2022/05/21 05:57:10;;;;;;;0.60;0.40;;;17.60;1.00;;;;;;5128419;28;20528;-56
2022/05/21 05:59:51;;;;;;;0.43;0.30;;;17.60;1.00;;;;;;5113686;28;20449;-58
2022/05/21 06:05:08;;;;;;;0.60;0.47;;;17.80;99.90;;;;;;5118287;28;20478;-58
2022/05/21 06:07:40;;;;;;;0.75;0.40;;;17.80;99.90;;;;;;5112705;28;20461;-58
2022/05/21 06:12:49;;;;;;;0.63;0.30;;;17.60;99.90;;;;;;5113725;28;20935;-58
2022/05/21 06:15:16;;;;;;;0.50;0.30;;;17.40;99.90;;;;;;5116147;28;20440;-55
2022/05/21 06:17:45;;;;;;;1.33;0.30;;;17.30;99.90;;;;;;5114060;28;20527;-58
2022/05/21 06:20:15;;;;;;;1.00;0.40;;;17.80;99.90;;;;;;5117290;28;20448;-58
2022/05/21 06:22:42;;;;;;;0.67;0.40;;;17.70;99.90;;;;;;5122091;27;20483;-57
2022/05/21 06:25:17;;;;;;;0.43;0.23;;;17.80;83.20;;;;;;5099236;28;20835;-58
2022/05/21 06:27:45;;;;;;;0.60;0.30;;;17.90;59.50;;;;;;5084861;28;20839;-58
2022/05/21 06:30:13;;;;;;;0.40;0.30;;;17.80;19.30;;;;;;5113334;28;20939;-58
2022/05/21 06:32:40;;;;;;;0.50;0.30;;;17.80;83.50;;;;;;5106266;28;20510;-58
2022/05/21 06:35:12;;;;;;;0.73;0.30;;;17.90;1.00;;;;;;5115426;28;20884;-58
2022/05/21 06:37:48;;;;;;;0.50;0.40;;;18.00;1.00;;;;;;5111198;28;20557;-59
2022/05/21 06:40:16;;;;;;;0.70;0.30;;;17.90;1.00;;;;;;5110100;28;20252;-59
2022/05/21 06:42:44;;;;;;;0.50;0.20;;;18.10;1.00;;;;;;5112337;28;20526;-59
2022/05/21 06:45:11;;;;;;;1.00;0.30;;;18.30;1.00;;;;;;5115256;28;20484;-57
2022/05/21 06:47:38;;;;;;;1.50;0.40;;;18.40;1.00;;;;;;5114558;28;20456;-57
2022/05/21 06:50:08;;;;;;;0.47;0.30;;;18.40;1.00;;;;;;5113908;28;20457;-58
2022/05/21 06:52:36;;;;;;;1.03;0.30;;;18.50;1.00;;;;;;5110382;28;20449;-58
2022/05/21 06:55:05;;;;;;;0.40;0.20;;;18.50;1.00;;;;;;5117701;28;20451;-58
2022/05/21 06:57:32;;;;;;;1.23;0.30;;;18.60;1.00;;;;;;5116849;28;20531;-58
2022/05/21 06:59:59;;;;;;;1.47;0.30;;;18.50;1.00;;;;;;5117061;28;20509;-59
2022/05/21 07:02:26;;;;;;;0.57;0.40;;;18.60;1.00;;;;;;5118357;28;20509;-58
2022/05/21 07:07:44;;;;;;;0.60;0.30;;;18.60;1.00;;;;;;5113479;28;20525;-58
2022/05/21 07:10:21;;;;;;;0.40;0.30;;;18.70;1.00;;;;;;5117601;28;20432;-57
2022/05/21 07:12:49;;;;;;;0.73;0.40;;;18.60;1.00;;;;;;5117941;28;20456;-59
2022/05/21 07:15:17;;;;;;;0.83;0.30;;;18.40;1.00;;;;;;5117811;28;20486;-59
2022/05/21 07:17:45;;;;;;;0.60;0.30;;;18.60;1.00;;;;;;5105071;28;20517;-59
2022/05/21 07:20:16;;;;;;;0.50;0.30;;;18.40;1.00;;;;;;5118961;28;20967;-58
2022/05/21 07:22:46;;;;;;;0.40;0.20;;;18.30;1.00;;;;;;5118086;28;20452;-56
2022/05/21 07:25:16;;;;;;;0.60;0.30;;;18.40;1.00;;;;;;5131676;27;20485;-48
2022/05/21 07:27:43;;;;;;;1.13;0.30;;;18.60;1.00;;;;;;5136485;27;20459;-60
2022/05/21 07:30:11;;;;;;;0.50;0.20;;;18.70;1.00;;;;;;5134542;27;20497;-60
2022/05/21 07:32:38;;;;;;;0.40;0.20;;;19.00;1.00;;;;;;5138978;27;20451;-60
2022/05/21 07:35:08;;;;;;;0.40;0.20;;;19.00;1.00;;;;;;5131729;27;20465;-59
2022/05/21 07:37:35;;;;;;;0.40;0.20;;;19.20;1.00;;;;;;5137938;27;21041;-59
2022/05/21 07:40:14;;;;;;;0.70;0.23;;;19.10;1.00;;;;;;5138847;27;20522;-59
2022/05/21 07:42:54;;;;;;;3.80;0.20;;;19.10;1.00;;;;;;5135169;27;20460;-59
2022/05/21 07:45:21;;;;;;;0.30;0.20;;;19.10;1.00;;;;;;5128888;27;20482;-59
2022/05/21 07:47:50;;;;;;;1.07;0.20;;;19.20;1.00;;;;;;5135253;27;20464;-59
2022/05/21 07:50:19;;;;;;;0.50;0.20;;;19.10;1.00;;;;;;5133326;27;20456;-60
2022/05/21 07:52:46;;;;;;;0.50;0.27;;;19.20;1.00;;;;;;5127296;27;20460;-59
2022/05/21 07:55:15;;;;;;;0.50;0.20;;;19.30;1.00;;;;;;5133392;27;20516;-59
2022/05/21 07:57:53;;;;;;;0.30;0.10;;;19.30;1.00;;;;;;5134645;27;20895;-59
2022/05/21 08:00:20;;;;;;;0.30;0.20;;;19.40;1.00;;;;;;5136423;27;20510;-59
2022/05/21 08:02:49;;;;;;;0.37;0.20;;;19.60;1.00;;;;;;5128591;27;20778;-59
2022/05/21 08:05:16;;;;;;;0.70;0.20;;;19.50;1.00;;;;;;5124214;27;20507;-59
2022/05/21 08:07:44;;;;;;;0.30;0.20;;;19.50;1.00;;;;;;5135109;27;20507;-59
2022/05/21 08:10:21;;;;;;;0.30;0.20;;;19.50;1.00;;;;;;5129929;27;20468;-58
2022/05/21 08:12:53;;;;;;;0.30;0.10;;;19.20;1.00;;;;;;5136918;27;20756;-59
2022/05/21 08:15:21;;;;;;;0.40;0.20;;;19.20;1.00;;;;;;5122387;27;20521;-58
2022/05/21 08:17:48;;;;;;;0.83;0.20;;;19.40;1.00;;;;;;5137994;27;20757;-59
2022/05/21 08:20:16;;;;;;;0.47;0.20;;;19.50;1.00;;;;;;5129721;27;20455;-59
2022/05/21 08:28:17;;;;;;;0.33;0.20;;;19.80;1.00;;;;;;5124160;27;20431;-58
2022/05/21 08:30:45;;;;;;;0.30;0.17;;;19.80;1.00;;;;;;5122340;27;20461;-59
2022/05/21 08:33:23;;;;;;;0.40;0.20;;;19.80;1.00;;;;;;5135616;27;20460;-59
2022/05/21 08:35:51;;;;;;;1.23;0.20;;;19.90;1.00;;;;;;5135604;27;21058;-59
2022/05/21 08:38:18;;;;;;;0.37;0.20;;;19.80;1.00;;;;;;5127542;27;20548;-58
2022/05/21 08:40:54;;;;;;;0.40;0.20;;;19.70;1.00;;;;;;5135010;27;20452;-58
2022/05/21 08:43:23;;;;;;;0.40;0.20;;;19.80;1.00;;;;;;5135252;27;20978;-58
2022/05/21 08:46:07;;;;;;;0.40;0.20;;;20.10;1.00;;;;;;5135575;27;20484;-57
2022/05/21 08:48:36;;;;;;;0.30;0.10;;;20.10;1.00;;;;;;5133168;27;20906;-54
2022/05/21 08:51:08;;;;;;;0.30;0.20;;;20.10;1.00;;;;;;5131040;27;20546;-57
2022/05/21 08:53:49;;;;;;;0.40;0.20;;;20.20;1.00;;;;;;5125930;27;21018;-55
2022/05/21 08:56:17;;;;;;;0.70;0.20;;;20.00;1.00;;;;;;5126017;27;20528;-57
2022/05/21 08:58:48;;;;;;;0.60;0.20;;;19.50;1.00;;;;;;5123154;27;20202;-60
2022/05/21 09:01:19;;;;;;;0.80;0.20;;;19.70;1.00;;;;;;5122653;27;20465;-59
2022/05/21 09:03:46;;;;;;;0.30;0.10;;;20.00;1.00;;;;;;5122447;27;20513;-59
2022/05/21 09:06:24;;;;;;;0.50;0.20;;;20.30;1.00;;;;;;5125100;27;20480;-59
2022/05/21 09:08:57;;;;;;;0.60;0.20;;;20.30;1.00;;;;;;5132746;27;20515;-60
2022/05/21 09:11:34;;;;;;;0.30;0.20;;;20.60;1.00;;;;;;5125386;27;20480;-59
2022/05/21 09:14:06;;;;;;;0.40;0.20;;;20.60;1.00;;;;;;5118936;27;20452;-60
2022/05/21 09:19:26;;;;;;;0.40;0.20;;;20.90;1.00;;;;;;5129795;27;20443;-61
2022/05/21 09:22:02;;;;;;;0.40;0.20;;;20.90;1.00;;;;;;5136124;27;20448;-59
2022/05/21 09:24:41;;;;;;;1.23;0.20;;;21.00;1.00;;;;;;5124414;27;20484;-60
2022/05/21 09:27:32;;;;;;;0.60;0.30;;;21.10;1.00;;;;;;5126988;27;20470;-59
2022/05/21 09:30:17;;;;;;;0.50;0.20;;;21.20;1.00;;;;;;5124854;27;20476;-59
2022/05/21 09:32:52;;;;;;;0.40;0.10;;;21.20;1.00;;;;;;5123721;27;20514;-59
2022/05/21 09:35:23;;;;;;;0.50;0.20;;;21.30;1.00;;;;;;5116771;27;20451;-60
2022/05/21 09:37:50;;;;;;;0.70;0.30;;;21.30;1.00;;;;;;5123841;27;20546;-59
2022/05/21 09:40:34;;;;;;;1.40;0.30;;;21.40;1.00;;;;;;5123443;27;20447;-57
2022/05/21 09:45:48;;;;;;;0.30;0.20;;;21.20;1.00;;;;;;5123858;27;20486;-57
2022/05/21 09:48:20;;;;;;;0.47;0.20;;;21.50;1.00;;;;;;5127102;27;20471;-59
2022/05/21 09:50:51;;;;;;;0.40;0.20;;;21.70;1.00;;;;;;5114279;28;20464;-60
2022/05/21 09:53:37;;;;;;;0.60;0.20;;;21.70;1.00;;;;;;5124277;27;21056;-60
2022/05/21 09:56:08;;;;;;;1.07;0.20;;;21.60;1.00;;;;;;5117328;27;20497;-60
2022/05/21 09:58:39;;;;;;;0.50;0.20;;;21.90;1.00;;;;;;5128801;28;20552;-60
2022/05/21 10:01:10;;;;;;;0.60;0.20;;;22.00;1.00;;;;;;5119360;28;21118;-61
2022/05/21 10:03:55;;;;;;;1.77;0.30;;;21.80;1.00;;;;;;5131486;27;20443;-60
2022/05/21 10:06:35;;;;;;;0.70;0.20;;;22.00;1.00;;;;;;5128070;28;21119;-59
2022/05/21 10:11:57;;;;;;;0.40;0.20;;;22.50;1.00;;;;;;5125283;27;20955;-62
2022/05/21 10:14:35;;;;;;;0.87;0.30;;;22.80;1.00;;;;;;5131262;28;20886;-62
2022/05/21 10:17:08;;;;;;;0.40;0.20;;;23.20;1.00;;;;;;5132473;28;20510;-62
2022/05/21 10:19:41;;;;;;;0.50;0.20;;;23.30;1.00;;;;;;5122872;27;20795;-62
2022/05/21 10:22:22;;;;;;;0.30;0.20;;;23.60;1.00;;;;;;5127939;27;20488;-61
2022/05/21 10:25:00;;;;;;;1.13;0.20;;;23.50;1.00;;;;;;5128029;28;20789;-60
2022/05/21 10:27:50;;;;;;;0.70;0.30;;;23.90;1.00;;;;;;5128047;27;20448;-59
2022/05/21 10:30:23;;;;;;;1.33;0.10;;;24.20;1.00;;;;;;5121691;28;20459;-60
2022/05/21 10:33:14;;;;;;;0.70;0.30;;;24.50;1.00;;;;;;5131695;28;20812;-61
2022/05/21 10:35:55;;;;;;;5.73;0.23;;;24.70;1.00;;;;;;5125746;27;20524;-61
2022/05/21 10:38:47;;;;;;;0.40;0.20;;;24.90;1.00;;;;;;5122772;27;20456;-59
2022/05/21 10:41:28;;;;;;;0.63;0.30;;;24.70;1.00;;;;;;5131854;27;20495;-60
2022/05/21 10:44:13;;;;;;;0.70;0.20;;;24.30;1.00;;;;;;5122072;28;20910;-59
2022/05/21 10:47:00;;;;;;;0.40;0.20;;;24.50;1.00;;;;;;5123079;28;20537;-58
2022/05/21 10:49:49;;;;;;;0.70;0.20;;;24.50;1.00;;;;;;5120171;28;20445;-61
2022/05/21 10:52:28;;;;;;;0.40;0.27;;;24.00;1.00;;;;;;5124012;27;20428;-59
2022/05/21 10:55:10;;;;;;;0.40;0.20;;;24.30;1.00;;;;;;5129106;27;20537;-60
2022/05/21 10:58:00;;;;;;;0.47;0.20;;;24.90;1.00;;;;;;5127029;27;20501;-60
2022/05/21 11:00:35;;;;;;;0.93;0.30;;;24.80;1.00;;;;;;5116937;28;20452;-61
2022/05/21 11:03:28;;;;;;;0.50;0.30;;;24.60;1.00;;;;;;5116647;27;20504;-60
2022/05/21 11:06:09;;;;;;;0.40;0.20;;;24.80;1.00;;;;;;5126035;27;20483;-61
2022/05/21 11:08:43;;;;;;;1.13;0.20;;;25.20;1.00;;;;;;5122648;27;20548;-60
2022/05/21 11:11:16;;;;;;;0.40;0.20;;;25.30;1.00;;;;;;5123649;27;20457;-63
2022/05/21 11:13:55;;;;;;;0.83;0.20;;;25.80;1.00;;;;;;5125721;27;20448;-61
2022/05/21 11:16:29;;;;;;;0.40;0.20;;;25.90;1.00;;;;;;5132671;27;20462;-61
2022/05/21 11:19:03;;;;;;;1.17;0.20;;;26.00;1.00;;;;;;5132574;27;20466;-60
2022/05/21 11:21:35;;;;;;;0.40;0.20;;;26.30;1.00;;;;;;5117010;27;20459;-61
2022/05/21 11:24:08;;;;;;;0.60;0.23;;;26.10;1.00;;;;;;5128259;27;20494;-64
2022/05/21 11:26:41;;;;;;;0.30;0.10;;;26.00;1.00;;;;;;5121239;27;20859;-64
2022/05/21 11:29:14;;;;;;;0.50;0.20;;;26.10;1.00;;;;;;5126934;27;20814;-62
2022/05/21 11:37:39;;;;;;;0.40;0.20;;;26.40;1.00;;;;;;5122235;27;20446;-62
2022/05/21 11:40:09;;;;;;;0.50;0.30;;;25.80;1.00;;;;;;5125119;27;20882;-60
2022/05/21 11:42:38;;;;;;;0.57;0.30;;;26.20;1.00;;;;;;5127023;27;20463;-59
2022/05/21 11:45:22;;;;;;;0.40;0.20;;;26.00;1.00;;;;;;5131978;27;20452;-59
2022/05/21 11:47:53;;;;;;;0.53;0.20;;;25.90;1.00;;;;;;5119386;27;20455;-59
2022/05/21 11:50:28;;;;;;;0.40;0.23;;;26.20;1.00;;;;;;5121565;27;20456;-61
2022/05/21 11:53:09;;;;;;;0.30;0.20;;;26.60;1.00;;;;;;5119712;27;20468;-59
2022/05/21 11:55:58;;;;;;;0.30;0.20;;;27.00;1.00;;;;;;5129069;27;21077;-60
2022/05/21 11:59:25;;;;;;;0.37;0.20;;;27.50;1.00;;;;;;5124606;27;20448;-60
2022/05/21 12:02:22;;;;;;;1.10;0.27;;;27.20;1.00;;;;;;5123463;27;20462;-60
2022/05/21 12:04:53;;;;;;;0.90;0.20;;;26.80;1.00;;;;;;5131289;27;20534;-60
2022/05/21 12:07:59;;;;;;;0.93;0.70;;;26.80;1.00;;;;;;5115586;27;20933;-59
2022/05/21 12:10:30;;;;;;;0.97;0.40;;;26.60;1.00;;;;;;5124735;27;20533;-59
2022/05/21 12:13:15;;;;;;;0.43;0.20;;;27.00;1.00;;;;;;5135310;27;20460;-60
2022/05/21 12:15:46;;;;;;;0.50;0.30;;;26.60;1.00;;;;;;5134933;27;20464;-61
2022/05/21 12:18:33;;;;;;;0.53;0.20;;;26.80;1.00;;;;;;5134700;27;20500;-61
2022/05/21 12:21:00;;;;;;;0.30;0.20;;;27.30;1.00;;;;;;5117624;27;20820;-60
2022/05/21 12:24:08;;;;;;;0.40;0.27;;;27.70;1.00;;;;;;5118708;27;20480;-60
2022/05/21 12:26:36;;;;;;;0.63;0.30;;;27.90;1.00;;;;;;5132626;27;20479;-60
2022/05/21 12:29:16;;;;;;;0.30;0.20;;;27.80;1.00;;;;;;5126398;27;20464;-60
2022/05/21 12:31:44;;;;;;;0.60;0.20;;;27.90;1.00;;;;;;5125595;27;20921;-59
2022/05/21 12:35:15;;;;;;;0.37;0.20;;;28.00;1.00;;;;;;5127425;27;20610;-61
2022/05/21 12:37:46;;;;;;;0.50;0.30;;;28.00;1.00;;;;;;5089161;28;20542;-59
2022/05/21 12:40:20;;;;;;;0.47;0.30;;;28.10;1.00;;;;;;5121006;27;20452;-60
2022/05/21 12:42:52;;;;;;;0.40;0.23;;;28.20;1.00;;;;;;5120510;28;20478;-61
2022/05/21 12:45:33;;;;;;;0.47;0.20;;;28.10;1.00;;;;;;5120551;28;20467;-59
2022/05/21 12:48:09;;;;;;;0.40;0.20;;;27.60;1.00;;;;;;5122861;28;20480;-60
2022/05/21 12:50:36;;;;;;;0.70;0.20;;;27.70;1.00;;;;;;5114757;28;20531;-62
2022/05/21 12:53:06;;;;;;;0.40;0.23;;;28.10;1.00;;;;;;5119840;28;20508;-59
2022/05/21 12:55:34;;;;;;;0.37;0.20;;;28.10;1.00;;;;;;5119908;27;20459;-60
2022/05/21 12:58:17;;;;;;;0.40;0.20;;;28.40;1.00;;;;;;5120136;28;20496;-60
2022/05/21 13:00:51;;;;;;;0.40;0.20;;;28.50;1.00;;;;;;5119141;28;20445;-59
2022/05/21 13:03:19;;;;;;;0.40;0.20;;;28.80;1.00;;;;;;5120577;27;20834;-60
2022/05/21 13:05:52;;;;;;;0.50;0.20;;;28.70;1.00;;;;;;5123132;28;20778;-58
2022/05/21 13:08:22;;;;;;;0.90;0.30;;;27.60;1.00;;;;;;5123630;28;20822;-58
2022/05/21 13:11:00;;;;;;;0.40;0.20;;;27.70;1.00;;;;;;5120429;28;20467;-59
2022/05/21 13:13:30;;;;;;;0.40;0.20;;;27.60;1.00;;;;;;5121940;28;20481;-59
2022/05/21 13:15:59;;;;;;;0.40;0.20;;;27.40;1.00;;;;;;5119275;27;20877;-62
2022/05/21 13:18:39;;;;;;;0.57;0.20;;;27.50;1.00;;;;;;5121093;27;20449;-59
2022/05/21 13:21:17;;;;;;;0.57;0.20;;;27.50;1.00;;;;;;5124738;28;20838;-59
2022/05/21 13:24:11;;;;;;;0.30;0.20;;;27.70;1.00;;;;;;5118445;28;20458;-59
2022/05/21 13:26:39;;;;;;;0.30;0.20;;;27.70;1.00;;;;;;5117128;28;20757;-59
2022/05/21 13:29:16;;;;;;;1.80;0.20;;;27.60;1.00;;;;;;5123142;28;20450;-59
2022/05/21 13:31:43;;;;;;;0.40;0.20;;;27.60;1.00;;;;;;5121094;28;20479;-60
2022/05/21 13:34:16;;;;;;;0.33;0.20;;;27.80;1.00;;;;;;5121252;27;21125;-59
2022/05/21 13:36:49;;;;;;;0.40;0.20;;;27.80;1.00;;;;;;5126572;28;20447;-59
2022/05/21 13:39:23;;;;;;;0.50;0.30;;;28.10;1.00;;;;;;5118460;28;20464;-59
2022/05/21 13:41:51;;;;;;;0.50;0.20;;;28.20;1.00;;;;;;5118610;28;20488;-59
2022/05/21 13:44:24;;;;;;;0.43;0.30;;;27.90;1.00;;;;;;5116881;27;20505;-58
2022/05/21 13:46:57;;;;;;;0.40;0.20;;;27.60;1.00;;;;;;5109574;28;20750;-57
2022/05/21 13:49:29;;;;;;;0.30;0.20;;;27.50;1.00;;;;;;5101531;28;20438;-58
2022/05/21 13:51:56;;;;;;;0.50;0.30;;;27.10;1.00;;;;;;5109123;28;20453;-60
2022/05/21 13:54:29;;;;;;;1.53;0.20;;;26.90;1.00;;;;;;5108146;28;20511;-59
2022/05/21 13:57:13;;;;;;;0.47;0.20;;;26.80;1.00;;;;;;5107094;28;20547;-60
2022/05/21 13:59:53;;;;;;;0.40;0.20;;;26.80;1.00;;;;;;5109172;28;20521;-59
2022/05/21 14:02:35;;;;;;;0.40;0.20;;;26.60;1.00;;;;;;5095939;28;20544;-60